createdAt,value
2019-04-22T00:02:30.351Z,99.90
2019-04-22T00:05:11.482Z,99.90
2019-04-22T00:08:00.099Z,99.90
2019-04-22T00:10:35.807Z,99.90
2019-04-22T00:13:00.051Z,99.90
2019-04-22T00:15:20.177Z,99.90
2019-04-22T00:18:15.794Z,99.90
2019-04-22T00:20:29.955Z,99.90
2019-04-22T00:23:00.126Z,99.90
2019-04-22T00:25:39.235Z,99.90
2019-04-22T00:28:02.413Z,99.90
2019-04-22T00:30:29.857Z,99.90
2019-04-22T00:33:17.998Z,99.90
2019-04-22T00:35:49.361Z,99.90
2019-04-22T00:41:00.831Z,99.90
2019-04-22T00:43:21.216Z,99.90
2019-04-22T00:45:54.026Z,99.90
2019-04-22T00:51:04.239Z,99.90
2019-04-22T00:56:07.404Z,99.90
2019-04-22T00:58:39.717Z,99.90
2019-04-22T01:01:08.056Z,99.90
2019-04-22T01:03:46.230Z,99.90
2019-04-22T01:06:07.749Z,99.90
2019-04-22T01:08:40.282Z,99.90
2019-04-22T01:11:14.766Z,99.90
2019-04-22T01:13:41.011Z,99.90
2019-04-22T01:16:15.317Z,99.90
2019-04-22T01:18:37.328Z,99.90
2019-04-22T01:21:21.510Z,99.90
2019-04-22T01:23:34.491Z,99.90
2019-04-22T01:26:06.427Z,99.90
2019-04-22T01:28:27.939Z,99.90
2019-04-22T01:30:53.324Z,99.90
2019-04-22T01:33:28.074Z,99.90
2019-04-22T01:36:09.309Z,99.90
2019-04-22T01:38:36.627Z,99.90
2019-04-22T01:41:16.490Z,99.90
2019-04-22T01:43:53.737Z,99.90
2019-04-22T01:46:16.614Z,99.90
2019-04-22T01:48:47.210Z,99.90
2019-04-22T01:51:12.259Z,99.90
2019-04-22T01:53:51.748Z,99.90
2019-04-22T01:56:20.910Z,99.90
2019-04-22T01:58:38.098Z,99.90
2019-04-22T02:01:22.281Z,99.90
2019-04-22T02:06:23.444Z,99.90
2019-04-22T02:08:52.813Z,99.90
2019-04-22T02:11:26.547Z,99.90
2019-04-22T02:13:49.813Z,99.90
2019-04-22T02:16:21.130Z,99.90
2019-04-22T02:18:56.403Z,99.90
2019-04-22T02:21:22.906Z,99.90
2019-04-22T02:26:27.232Z,99.90
2019-04-22T02:29:06.554Z,99.90
2019-04-22T02:41:41.512Z,99.90
2019-04-22T02:44:08.216Z,99.90
2019-04-22T02:46:44.951Z,99.90
2019-04-22T02:51:28.265Z,99.90
2019-04-22T02:59:12.255Z,99.90
2019-04-22T03:01:36.035Z,99.90
2019-04-22T03:04:20.476Z,99.90
2019-04-22T03:06:36.668Z,99.90
2019-04-22T03:14:04.645Z,99.90
2019-04-22T03:16:41.217Z,99.90
2019-04-22T03:19:17.745Z,99.90
2019-04-22T03:21:54.358Z,99.90
2019-04-22T03:29:33.476Z,99.90
2019-04-22T03:32:39.699Z,99.90
2019-04-22T03:39:51.300Z,99.90
2019-04-22T03:44:38.413Z,99.90
2019-04-22T03:49:58.588Z,99.90
2019-04-22T03:54:40.342Z,99.90
2019-04-22T03:57:25.036Z,99.90
2019-04-22T03:59:43.983Z,99.90
2019-04-22T04:09:39.134Z,99.90
2019-04-22T04:12:25.879Z,99.90
2019-04-22T04:14:46.422Z,99.90
2019-04-22T04:17:08.961Z,99.90
2019-04-22T04:20:05.947Z,99.90
2019-04-22T04:22:27.150Z,99.90
2019-04-22T04:27:43.563Z,99.90
2019-04-22T04:29:54.482Z,99.90
2019-04-22T04:32:26.860Z,99.90
2019-04-22T04:37:38.913Z,99.90
2019-04-22T04:39:54.538Z,99.90
2019-04-22T04:47:25.871Z,99.90
2019-04-22T04:49:52.351Z,99.90
2019-04-22T04:52:33.025Z,99.90
2019-04-22T04:55:12.342Z,99.90
2019-04-22T04:57:23.988Z,99.90
2019-04-22T05:07:27.745Z,99.90
2019-04-22T05:09:53.221Z,99.90
2019-04-22T05:12:33.550Z,99.90
2019-04-22T05:14:54.965Z,99.90
2019-04-22T05:19:47.664Z,99.90
2019-04-22T05:22:21.418Z,99.90
2019-04-22T05:24:53.391Z,99.90
2019-04-22T05:32:22.781Z,99.90
2019-04-22T05:34:48.569Z,99.90
2019-04-22T05:37:22.835Z,99.90
2019-04-22T05:39:49.674Z,99.90
2019-04-22T05:42:21.754Z,99.90
2019-04-22T05:45:10.285Z,99.90
2019-04-22T05:47:19.615Z,99.90
2019-04-22T05:49:48.087Z,99.90
2019-04-22T05:52:20.380Z,99.90
2019-04-22T05:54:55.339Z,99.90
2019-04-22T05:57:24.786Z,99.90
2019-04-22T05:59:59.520Z,99.90
2019-04-22T06:02:32.475Z,99.90
2019-04-22T06:04:58.297Z,99.90
2019-04-22T06:07:26.420Z,99.90
2019-04-22T06:10:02.347Z,99.90
2019-04-22T06:12:20.868Z,99.90
2019-04-22T06:14:58.145Z,99.90
2019-04-22T06:17:35.679Z,99.90
2019-04-22T06:19:58.655Z,99.90
2019-04-22T06:22:37.540Z,99.90
2019-04-22T06:25:04.269Z,99.90
2019-04-22T06:29:57.113Z,99.90
2019-04-22T06:35:09.508Z,99.90
2019-04-22T06:37:36.668Z,99.90
2019-04-22T06:40:06.768Z,99.90
2019-04-22T06:42:36.257Z,99.90
2019-04-22T06:45:07.266Z,99.90
2019-04-22T06:47:51.189Z,99.90
2019-04-22T06:50:07.658Z,99.90
2019-04-22T06:52:28.146Z,99.90
2019-04-22T06:55:13.180Z,99.90
2019-04-22T06:57:41.434Z,99.90
2019-04-22T07:00:14.363Z,99.90
2019-04-22T07:02:47.168Z,99.90
2019-04-22T07:05:08.187Z,99.90
2019-04-22T07:07:41.754Z,99.90
2019-04-22T07:10:20.133Z,99.90
2019-04-22T07:12:34.634Z,99.90
2019-04-22T07:15:13.723Z,99.90
2019-04-22T07:17:42.415Z,99.90
2019-04-22T07:20:10.473Z,99.90
2019-04-22T07:22:41.916Z,99.90
2019-04-22T07:25:10.262Z,99.90
2019-04-22T07:27:41.828Z,99.90
2019-04-22T07:30:15.173Z,99.90
2019-04-22T07:35:19.523Z,99.90
2019-04-22T07:38:00.714Z,99.50
2019-04-22T07:40:25.171Z,99.30
2019-04-22T07:42:45.432Z,99.00
2019-04-22T07:45:16.566Z,99.10
2019-04-22T07:50:32.204Z,98.80
2019-04-22T07:52:44.950Z,98.90
2019-04-22T07:55:13.423Z,98.20
2019-04-22T07:57:51.989Z,98.20
2019-04-22T08:02:51.715Z,98.10
2019-04-22T08:05:21.675Z,97.60
2019-04-22T08:07:52.047Z,97.30
2019-04-22T08:12:55.451Z,97.50
2019-04-22T08:15:21.272Z,97.10
2019-04-22T08:20:25.156Z,96.40
2019-04-22T08:23:00.916Z,96.60
2019-04-22T08:25:26.508Z,96.40
2019-04-22T08:28:01.647Z,96.00
2019-04-22T08:30:28.333Z,96.00
2019-04-22T08:32:53.229Z,96.00
2019-04-22T08:40:34.712Z,95.70
2019-04-22T08:43:09.062Z,95.70
2019-04-22T08:45:36.603Z,95.60
2019-04-22T08:47:54.757Z,95.40
2019-04-22T08:50:28.396Z,95.50
2019-04-22T08:53:06.205Z,95.50
2019-04-22T08:55:32.918Z,94.60
2019-04-22T08:58:16.762Z,94.90
2019-04-22T09:00:37.502Z,94.70
2019-04-22T09:03:04.415Z,94.20
2019-04-22T09:06:02.426Z,93.90
2019-04-22T09:08:09.422Z,94.20
2019-04-22T09:10:40.011Z,94.10
2019-04-22T09:13:05.801Z,93.50
2019-04-22T09:15:34.314Z,93.00
2019-04-22T09:18:12.767Z,93.00
2019-04-22T09:20:40.436Z,93.00
2019-04-22T09:23:07.664Z,92.70
2019-04-22T09:28:07.339Z,92.20
2019-04-22T09:30:40.406Z,92.30
2019-04-22T09:33:17.080Z,92.00
2019-04-22T09:35:45.058Z,91.70
2019-04-22T09:40:43.521Z,91.60
2019-04-22T09:43:13.356Z,91.10
2019-04-22T09:45:43.603Z,90.50
2019-04-22T09:48:16.621Z,90.30
2019-04-22T09:50:47.981Z,90.00
2019-04-22T09:53:16.111Z,90.00
2019-04-22T09:55:47.139Z,89.80
2019-04-22T09:58:16.177Z,89.00
2019-04-22T10:01:30.745Z,86.60
2019-04-22T10:03:49.737Z,86.10
2019-04-22T10:06:22.562Z,85.10
2019-04-22T10:08:54.220Z,83.50
2019-04-22T10:11:25.122Z,82.60
2019-04-22T10:13:52.323Z,82.10
2019-04-22T10:16:17.331Z,82.30
2019-04-22T10:18:46.117Z,81.60
2019-04-22T10:21:27.219Z,81.70
2019-04-22T10:23:44.305Z,82.50
2019-04-22T10:26:26.854Z,80.30
2019-04-22T10:28:53.261Z,79.80
2019-04-22T10:31:29.441Z,80.60
2019-04-22T10:33:42.181Z,78.80
2019-04-22T10:35:55.423Z,79.50
2019-04-22T10:38:24.195Z,78.30
2019-04-22T10:40:54.451Z,77.80
2019-04-22T10:43:23.349Z,78.50
2019-04-22T10:45:52.331Z,76.80
2019-04-22T10:48:22.036Z,77.20
2019-04-22T10:50:50.911Z,75.90
2019-04-22T10:53:19.894Z,76.80
2019-04-22T10:55:49.796Z,77.00
2019-04-22T10:58:20.719Z,75.60
2019-04-22T11:00:50.393Z,76.30
2019-04-22T11:03:20.407Z,73.30
2019-04-22T11:05:50.546Z,73.80
2019-04-22T11:08:28.566Z,73.60
2019-04-22T11:11:04.727Z,74.10
2019-04-22T11:13:22.098Z,74.90
2019-04-22T11:15:51.040Z,73.00
2019-04-22T11:18:19.977Z,72.80
2019-04-22T11:20:49.530Z,70.80
2019-04-22T11:23:18.726Z,72.00
2019-04-22T11:25:47.993Z,71.40
2019-04-22T11:28:18.005Z,72.30
2019-04-22T11:30:48.131Z,72.30
2019-04-22T11:33:18.299Z,72.50
2019-04-22T11:35:47.947Z,70.00
2019-04-22T11:38:17.279Z,70.30
2019-04-22T11:40:51.644Z,68.50
2019-04-22T11:43:16.696Z,68.80
2019-04-22T11:45:45.395Z,69.10
2019-04-22T11:48:15.488Z,68.60
2019-04-22T11:50:46.000Z,68.60
2019-04-22T11:53:16.570Z,68.80
2019-04-22T11:55:46.774Z,68.90
2019-04-22T11:58:16.937Z,70.20
2019-04-22T12:00:46.144Z,70.20
2019-04-22T12:03:14.953Z,68.90
2019-04-22T12:05:44.063Z,70.00
2019-04-22T12:08:13.266Z,68.70
2019-04-22T12:10:49.200Z,69.20
2019-04-22T12:13:12.992Z,70.00
2019-04-22T12:15:42.782Z,68.60
2019-04-22T12:18:13.019Z,67.20
2019-04-22T12:20:43.370Z,65.50
2019-04-22T12:23:12.728Z,65.60
2019-04-22T12:25:48.683Z,66.90
2019-04-22T12:28:13.000Z,66.00
2019-04-22T12:30:41.948Z,65.40
2019-04-22T12:33:12.976Z,65.40
2019-04-22T12:35:42.214Z,65.90
2019-04-22T12:38:14.354Z,65.50
2019-04-22T12:40:49.358Z,64.50
2019-04-22T12:43:14.313Z,61.80
2019-04-22T12:45:42.800Z,60.60
2019-04-22T12:48:12.818Z,61.80
2019-04-22T12:50:45.652Z,60.70
2019-04-22T12:53:16.706Z,61.10
2019-04-22T12:55:43.924Z,58.60
2019-04-22T12:58:13.878Z,57.50
2019-04-22T13:00:45.228Z,58.00
2019-04-22T13:03:14.173Z,58.10
2019-04-22T13:05:43.137Z,59.00
2019-04-22T13:08:13.754Z,60.10
2019-04-22T13:10:53.294Z,59.90
2019-04-22T13:13:13.311Z,60.00
2019-04-22T13:15:42.178Z,58.60
2019-04-22T13:18:19.183Z,58.80
2019-04-22T13:20:42.174Z,58.50
2019-04-22T13:23:11.650Z,58.70
2019-04-22T13:25:40.951Z,57.40
2019-04-22T13:28:11.238Z,57.30
2019-04-22T13:30:40.888Z,57.00
2019-04-22T13:33:10.763Z,56.50
2019-04-22T13:35:39.737Z,55.50
2019-04-22T13:38:09.121Z,53.60
2019-04-22T13:40:39.105Z,55.20
2019-04-22T13:43:09.079Z,54.60
2019-04-22T13:45:38.569Z,55.30
2019-04-22T13:48:24.052Z,54.00
2019-04-22T13:51:03.449Z,53.60
2019-04-22T13:53:46.177Z,55.10
2019-04-22T13:56:01.732Z,55.70
2019-04-22T13:58:23.350Z,55.20
2019-04-22T14:00:40.709Z,54.90
2019-04-22T14:03:39.081Z,53.50
2019-04-22T14:06:09.079Z,51.40
2019-04-22T14:08:37.958Z,51.30
2019-04-22T14:11:18.284Z,53.30
2019-04-22T14:13:39.626Z,52.70
2019-04-22T14:16:09.026Z,52.40
2019-04-22T14:18:39.045Z,52.70
2019-04-22T14:21:09.125Z,52.60
2019-04-22T14:23:38.523Z,53.50
2019-04-22T14:26:07.347Z,52.30
2019-04-22T14:28:37.466Z,52.30
2019-04-22T14:31:06.842Z,50.80
2019-04-22T14:33:36.264Z,48.60
2019-04-22T14:36:05.387Z,48.90
2019-04-22T14:38:34.711Z,48.70
2019-04-22T14:41:05.757Z,48.30
2019-04-22T14:44:24.478Z,49.50
2019-04-22T14:46:35.000Z,49.20
2019-04-22T14:49:00.004Z,49.30
2019-04-22T14:51:25.521Z,47.90
2019-04-22T14:53:56.689Z,48.40
2019-04-22T14:56:08.502Z,47.10
2019-04-22T14:58:37.564Z,47.80
2019-04-22T15:01:06.899Z,46.70
2019-04-22T15:03:39.939Z,46.70
2019-04-22T15:06:06.561Z,46.20
2019-04-22T15:08:35.417Z,46.90
2019-04-22T15:11:06.223Z,46.10
2019-04-22T15:13:35.635Z,45.70
2019-04-22T15:16:27.751Z,44.90
2019-04-22T15:19:11.619Z,43.70
2019-04-22T15:21:40.995Z,42.00
2019-04-22T15:24:27.343Z,42.20
2019-04-22T15:26:58.597Z,41.60
2019-04-22T15:29:29.391Z,41.40
2019-04-22T15:31:59.730Z,41.40
2019-04-22T15:34:30.386Z,41.80
2019-04-22T15:37:00.092Z,42.20
2019-04-22T15:39:29.252Z,42.20
2019-04-22T15:42:11.387Z,42.80
2019-04-22T15:44:30.248Z,43.20
2019-04-22T15:47:00.717Z,43.30
2019-04-22T15:49:29.842Z,44.70
2019-04-22T15:52:00.752Z,45.00
2019-04-22T15:54:29.850Z,45.00
2019-04-22T15:56:59.047Z,44.60
2019-04-22T15:59:46.571Z,45.80
2019-04-22T16:02:00.278Z,45.00
2019-04-22T16:04:30.720Z,45.20
2019-04-22T16:07:01.069Z,45.00
2019-04-22T16:09:31.266Z,46.00
2019-04-22T16:12:12.559Z,45.00
2019-04-22T16:14:37.193Z,46.10
2019-04-22T16:17:01.393Z,46.50
2019-04-22T16:19:30.948Z,47.10
2019-04-22T16:22:05.543Z,45.30
2019-04-22T16:24:50.223Z,45.30
2019-04-22T16:27:22.849Z,45.50
2019-04-22T16:29:51.767Z,45.80
2019-04-22T16:32:21.226Z,45.70
2019-04-22T16:34:54.537Z,47.10
2019-04-22T16:37:24.953Z,52.20
2019-04-22T16:39:54.749Z,53.50
2019-04-22T16:42:31.182Z,53.80
2019-04-22T16:44:55.463Z,56.00
2019-04-22T16:47:25.419Z,56.90
2019-04-22T16:49:55.321Z,58.00
2019-04-22T16:52:25.841Z,57.60
2019-04-22T16:54:55.018Z,57.60
2019-04-22T16:57:24.125Z,58.30
2019-04-22T16:59:53.168Z,58.40
2019-04-22T17:02:43.420Z,58.50
2019-04-22T17:05:29.743Z,59.00
2019-04-22T17:08:00.425Z,59.40
2019-04-22T17:10:29.698Z,59.70
2019-04-22T17:13:05.961Z,59.40
2019-04-22T17:15:33.402Z,59.20
2019-04-22T17:18:03.234Z,59.50
2019-04-22T17:20:38.220Z,59.70
2019-04-22T17:23:07.452Z,60.00
2019-04-22T17:25:36.404Z,60.00
2019-04-22T17:28:05.683Z,60.00
2019-04-22T17:30:35.896Z,60.20
2019-04-22T17:33:05.246Z,60.00
2019-04-22T17:35:34.296Z,59.90
2019-04-22T17:38:15.352Z,59.90
2019-04-22T17:40:52.287Z,60.10
2019-04-22T17:43:36.199Z,60.00
2019-04-22T17:46:13.703Z,60.30
2019-04-22T17:49:04.354Z,60.10
2019-04-22T17:51:55.170Z,60.00
2019-04-22T17:54:12.071Z,59.70
2019-04-22T17:56:37.303Z,59.60
2019-04-22T17:59:08.242Z,59.70
2019-04-22T18:01:40.296Z,59.50
2019-04-22T18:03:53.029Z,59.90
2019-04-22T18:06:46.955Z,59.80
2019-04-22T18:09:04.959Z,59.40
2019-04-22T18:11:56.077Z,59.30
2019-04-22T18:14:29.924Z,59.20
2019-04-22T18:16:41.294Z,59.00
2019-04-22T18:19:16.651Z,59.20
2019-04-22T18:21:41.222Z,59.10
2019-04-22T18:24:06.869Z,58.70
2019-04-22T18:26:49.725Z,58.50
2019-04-22T18:29:19.373Z,58.20
2019-04-22T18:31:34.282Z,58.70
2019-04-22T18:34:10.134Z,58.30
2019-04-22T18:36:40.426Z,58.40
2019-04-22T18:39:22.497Z,58.60
2019-04-22T18:41:48.186Z,58.40
2019-04-22T18:44:25.115Z,58.30
2019-04-22T18:46:52.408Z,58.20
2019-04-22T18:49:26.886Z,58.50
2019-04-22T18:52:14.735Z,58.80
2019-04-22T18:54:55.362Z,58.90
2019-04-22T18:57:22.182Z,58.90
2019-04-22T18:59:37.988Z,58.90
2019-04-22T19:02:07.817Z,59.20
2019-04-22T19:04:47.297Z,59.40
2019-04-22T19:07:33.184Z,59.40
2019-04-22T19:10:04.890Z,59.60
2019-04-22T19:12:35.503Z,59.90
2019-04-22T19:15:22.673Z,59.70
2019-04-22T19:17:44.315Z,59.80
2019-04-22T19:22:36.044Z,60.00
2019-04-22T19:24:58.022Z,60.00
2019-04-22T19:27:31.225Z,60.10
2019-04-22T19:30:03.994Z,60.40
2019-04-22T19:32:35.141Z,60.60
2019-04-22T19:34:57.377Z,60.60
2019-04-22T19:37:28.471Z,60.80
2019-04-22T19:40:10.508Z,60.70
2019-04-22T19:42:49.523Z,61.10
2019-04-22T19:45:08.607Z,61.10
2019-04-22T19:47:56.545Z,61.60
2019-04-22T19:50:15.053Z,61.70
2019-04-22T19:52:40.345Z,61.90
2019-04-22T19:55:12.586Z,62.20
2019-04-22T19:57:41.328Z,62.10
2019-04-22T20:00:18.375Z,62.00
2019-04-22T20:03:03.683Z,62.50
2019-04-22T20:05:47.979Z,62.70
2019-04-22T20:08:21.334Z,63.00
2019-04-22T20:10:51.252Z,63.50
2019-04-22T20:13:24.248Z,63.90
2019-04-22T20:15:43.334Z,63.70
2019-04-22T20:20:58.489Z,64.20
2019-04-22T20:23:18.204Z,64.60
2019-04-22T20:25:48.373Z,65.10
2019-04-22T20:28:25.660Z,65.50
2019-04-22T20:30:59.600Z,65.80
2019-04-22T20:33:29.126Z,66.10
2019-04-22T20:36:01.493Z,66.70
2019-04-22T20:38:26.228Z,66.80
2019-04-22T20:40:55.183Z,67.30
2019-04-22T20:43:38.925Z,67.80
2019-04-22T20:46:00.605Z,68.00
2019-04-22T20:48:28.586Z,68.80
2019-04-22T20:50:59.223Z,68.70
2019-04-22T20:53:36.426Z,69.20
2019-04-22T20:56:00.556Z,69.60
2019-04-22T20:58:33.068Z,70.40
2019-04-22T21:00:56.871Z,70.70
2019-04-22T21:03:23.773Z,71.10
2019-04-22T21:05:55.883Z,71.40
2019-04-22T21:08:36.592Z,72.00
2019-04-22T21:10:57.918Z,72.40
2019-04-22T21:13:28.163Z,72.80
2019-04-22T21:16:10.546Z,73.50
2019-04-22T21:18:30.699Z,73.90
2019-04-22T21:21:07.201Z,74.80
2019-04-22T21:23:32.879Z,75.00
2019-04-22T21:26:11.205Z,75.40
2019-04-22T21:28:38.399Z,75.80
2019-04-22T21:31:14.835Z,75.70
2019-04-22T21:33:40.811Z,75.50
2019-04-22T21:36:30.186Z,75.20
2019-04-22T21:38:42.157Z,75.00
2019-04-22T21:41:10.041Z,74.90
2019-04-22T21:43:42.176Z,75.20
2019-04-22T21:46:29.206Z,75.60
2019-04-22T21:48:46.474Z,75.30
2019-04-22T21:51:21.290Z,75.90
2019-04-22T21:53:52.193Z,75.80
2019-04-22T21:59:00.228Z,74.40
2019-04-22T22:01:44.725Z,74.40
2019-04-22T22:04:07.953Z,74.90
2019-04-22T22:06:31.145Z,74.50
2019-04-22T22:09:08.703Z,74.60
2019-04-22T22:11:38.672Z,74.70
2019-04-22T22:14:07.820Z,75.10
2019-04-22T22:16:34.927Z,75.80
2019-04-22T22:19:11.698Z,76.40
2019-04-22T22:21:47.098Z,77.40
2019-04-22T22:24:18.144Z,78.10
2019-04-22T22:26:45.066Z,78.30
2019-04-22T22:29:18.427Z,77.90
2019-04-22T22:31:47.123Z,77.10
2019-04-22T22:34:19.467Z,77.90
2019-04-22T22:36:40.395Z,77.30
2019-04-22T22:39:08.685Z,77.10
2019-04-22T22:41:25.978Z,76.90
2019-04-22T22:44:03.210Z,76.60
2019-04-22T22:46:34.182Z,76.90
2019-04-22T22:49:21.860Z,76.90
2019-04-22T22:54:21.444Z,77.10
2019-04-22T22:56:57.598Z,77.60
2019-04-22T22:59:24.056Z,78.30
2019-04-22T23:01:52.693Z,79.30
2019-04-22T23:04:26.381Z,80.70
2019-04-22T23:06:56.205Z,81.40
2019-04-22T23:09:22.612Z,81.80
2019-04-22T23:12:13.257Z,81.90
2019-04-22T23:14:20.372Z,81.30
2019-04-22T23:16:44.958Z,81.10
2019-04-22T23:19:04.462Z,80.90
2019-04-22T23:21:39.850Z,81.50
2019-04-22T23:24:28.265Z,81.10
2019-04-22T23:27:03.090Z,81.10
2019-04-22T23:29:43.047Z,81.10
2019-04-22T23:32:18.537Z,81.60
2019-04-22T23:34:55.857Z,82.00
2019-04-22T23:37:25.206Z,82.10
2019-04-22T23:40:13.097Z,82.60
2019-04-22T23:42:33.418Z,82.70
2019-04-22T23:45:07.259Z,83.60
2019-04-22T23:47:29.289Z,83.80
2019-04-22T23:50:08.894Z,83.50
2019-04-22T23:52:58.842Z,84.10
2019-04-22T23:55:29.804Z,84.20
2019-04-22T23:58:21.057Z,85.60
